Time;durP1;ratioP1;P1;durP2;ratioP2;P2;SDS_P1;SDS_P2;PMS_P1;PMS_P2;Temp;Humidity;BMP_temperature;BMP_pressure;BME280_temperature;BME280_humidity;BME280_pressure;Samples;Min_cycle;Max_cycle;Signal;HPM_P1;HPM_P2
2024/02/25 00:01:10;;;;;;;5.90;1.80;;;;;;;4.04;100.00;99828.88;5012512;28;20034;-71
2024/02/25 00:03:35;;;;;;;9.43;2.38;;;;;;;3.90;100.00;99817.28;5009467;28;20366;-71
2024/02/25 00:06:01;;;;;;;9.43;1.70;;;;;;;4.07;100.00;99809.84;4996538;28;20149;-71
2024/02/25 00:08:26;;;;;;;3.25;1.92;;;;;;;4.03;100.00;99821.31;4990531;28;20038;-70
2024/02/25 00:10:52;;;;;;;4.60;1.90;;;;;;;4.01;100.00;99813.78;5018941;28;20065;-71
2024/02/25 00:13:18;;;;;;;5.03;1.73;;;;;;;4.02;100.00;99810.25;4992876;28;20480;-72
2024/02/25 00:15:43;;;;;;;6.97;2.20;;;;;;;4.07;100.00;99810.66;5007548;28;20083;-71
2024/02/25 00:18:09;;;;;;;5.65;2.15;;;;;;;4.16;100.00;99808.19;5009056;28;20409;-71
2024/02/25 00:20:34;;;;;;;5.38;1.92;;;;;;;4.10;100.00;99810.38;5005880;28;20041;-71
2024/02/25 00:22:59;;;;;;;6.18;2.20;;;;;;;4.07;100.00;99807.28;4994145;28;20044;-71
2024/02/25 00:25:25;;;;;;;3.08;1.70;;;;;;;4.13;100.00;99805.94;5008597;28;20034;-71
2024/02/25 00:27:50;;;;;;;6.68;2.13;;;;;;;4.14;100.00;99805.75;5011933;28;20021;-71
2024/02/25 00:30:16;;;;;;;3.30;1.80;;;;;;;4.20;100.00;99807.81;5021440;28;20427;-71
2024/02/25 00:32:41;;;;;;;4.20;2.10;;;;;;;4.10;100.00;99812.94;5007786;28;20034;-71
2024/02/25 00:35:07;;;;;;;6.07;2.25;;;;;;;4.07;100.00;99810.66;5024404;28;20048;-71
2024/02/25 00:37:32;;;;;;;4.25;1.85;;;;;;;4.15;100.00;99814.28;5010021;28;20042;-71
2024/02/25 00:39:58;;;;;;;4.97;1.98;;;;;;;4.21;100.00;99809.41;5011054;28;20105;-71
2024/02/25 00:42:23;;;;;;;4.38;1.90;;;;;;;4.15;100.00;99815.09;4985416;28;20050;-71
2024/02/25 00:44:49;;;;;;;4.90;2.33;;;;;;;4.14;100.00;99813.47;5007861;28;20042;-71
2024/02/25 00:47:15;;;;;;;8.32;2.30;;;;;;;4.28;100.00;99814.81;5010038;28;20504;-71
2024/02/25 00:49:41;;;;;;;4.43;1.70;;;;;;;4.32;100.00;99815.34;5014086;28;20064;-71
2024/02/25 00:52:07;;;;;;;4.30;1.50;;;;;;;4.31;100.00;99806.00;5012390;28;20112;-71
2024/02/25 00:54:32;;;;;;;4.18;1.80;;;;;;;4.38;100.00;99807.06;5006497;28;20508;-71
2024/02/25 00:56:58;;;;;;;3.83;1.30;;;;;;;4.53;100.00;99808.22;5009786;28;20799;-71
2024/02/25 00:59:23;;;;;;;3.78;1.17;;;;;;;4.56;100.00;99805.38;5009327;28;20076;-71
2024/02/25 01:01:50;;;;;;;2.20;1.10;;;;;;;4.56;99.35;99804.56;4990931;28;20432;-72
2024/02/25 01:04:18;;;;;;;1.85;0.80;;;;;;;4.45;99.40;99808.94;5008200;28;20109;-71
2024/02/25 01:06:43;;;;;;;4.72;1.42;;;;;;;4.57;99.45;99808.75;5008214;28;20451;-71
2024/02/25 01:09:10;;;;;;;1.85;0.80;;;;;;;4.72;97.84;99809.91;5012975;28;20021;-71
2024/02/25 01:11:36;;;;;;;1.33;0.90;;;;;;;4.66;97.69;99807.91;5009912;28;20037;-71
2024/02/25 01:14:02;;;;;;;1.92;1.10;;;;;;;4.64;98.34;99809.81;4989662;28;20677;-71
2024/02/25 01:16:27;;;;;;;4.32;0.90;;;;;;;4.62;98.14;99809.16;5008414;28;20034;-71
2024/02/25 01:18:53;;;;;;;3.83;0.93;;;;;;;4.71;97.71;99807.47;5008914;28;20374;-71
2024/02/25 01:21:18;;;;;;;2.58;0.80;;;;;;;4.65;98.04;99808.84;5010719;28;20048;-71
2024/02/25 01:23:44;;;;;;;7.55;0.82;;;;;;;4.78;97.35;99804.19;4991530;28;20029;-71
2024/02/25 01:26:10;;;;;;;1.40;0.95;;;;;;;4.82;97.14;99812.44;5007048;28;20033;-71
2024/02/25 01:28:36;;;;;;;1.30;0.80;;;;;;;4.81;96.35;99808.25;4991501;28;20096;-71
2024/02/25 01:31:01;;;;;;;1.73;0.70;;;;;;;4.78;96.40;99804.19;5007251;28;20076;-71
2024/02/25 01:33:27;;;;;;;9.10;0.70;;;;;;;4.80;96.91;99802.31;5010165;28;20121;-71
2024/02/25 01:35:52;;;;;;;4.63;0.70;;;;;;;4.79;97.57;99798.13;4986109;28;20034;-71
2024/02/25 01:38:18;;;;;;;2.53;0.75;;;;;;;4.76;97.18;99806.09;5007994;28;20501;-71
2024/02/25 01:40:43;;;;;;;7.43;0.95;;;;;;;4.71;97.49;99799.78;5007109;28;20065;-71
2024/02/25 01:43:18;;;;;;;5.97;0.80;;;;;;;4.80;97.60;99807.47;5020423;28;20650;-71
2024/02/25 01:45:45;;;;;;;2.28;0.70;;;;;;;4.80;96.58;99797.19;5007758;28;20882;-72
2024/02/25 01:48:10;;;;;;;5.35;1.00;;;;;;;4.94;96.84;99797.66;4990061;28;20056;-71
2024/02/25 01:50:39;;;;;;;2.63;1.23;;;;;;;4.85;96.12;99794.97;4989147;28;20464;-71
2024/02/25 01:53:07;;;;;;;2.20;0.90;;;;;;;4.96;96.16;99790.59;5007715;28;20831;-71
2024/02/25 01:55:35;;;;;;;6.22;0.90;;;;;;;4.86;96.55;99795.81;4987780;28;20050;-71
2024/02/25 01:58:02;;;;;;;1.05;0.70;;;;;;;4.79;97.09;99795.56;4993231;28;20400;-71
2024/02/25 02:00:29;;;;;;;3.58;0.88;;;;;;;4.80;97.68;99796.34;5008757;28;20385;-71
2024/02/25 02:02:55;;;;;;;1.70;1.00;;;;;;;4.85;96.75;99797.53;5007605;28;20065;-71
2024/02/25 02:05:20;;;;;;;1.13;0.75;;;;;;;4.86;96.72;99796.59;4986075;28;20061;-71
2024/02/25 02:07:48;;;;;;;4.25;0.75;;;;;;;4.80;97.01;99804.88;5008731;28;20048;-71
2024/02/25 02:10:14;;;;;;;9.00;1.55;;;;;;;4.77;97.12;99800.03;4988087;28;20088;-71
2024/02/25 02:12:44;;;;;;;3.38;0.95;;;;;;;4.82;96.91;99799.59;5009144;28;20049;-71
2024/02/25 02:15:11;;;;;;;1.73;0.77;;;;;;;4.81;96.89;99797.97;5003928;28;20041;-71
2024/02/25 02:17:40;;;;;;;5.10;1.00;;;;;;;4.79;96.96;99790.41;5008703;28;20042;-71
2024/02/25 02:20:15;;;;;;;6.18;0.77;;;;;;;4.80;97.34;99801.50;5009951;28;20033;-71
2024/02/25 02:22:42;;;;;;;5.47;1.00;;;;;;;4.78;97.62;99804.19;5009173;28;20112;-71
2024/02/25 02:25:08;;;;;;;3.38;1.00;;;;;;;4.79;97.44;99798.13;5010885;28;20040;-71
2024/02/25 02:27:37;;;;;;;4.78;1.05;;;;;;;4.70;97.66;99793.84;5009094;28;20033;-71
2024/02/25 02:30:04;;;;;;;2.13;0.88;;;;;;;4.71;97.25;99794.63;5004025;28;20037;-71
2024/02/25 02:32:29;;;;;;;1.40;0.75;;;;;;;4.86;97.10;99793.22;5006002;28;20516;-71
2024/02/25 02:34:55;;;;;;;5.32;1.27;;;;;;;4.94;95.99;99789.94;4986414;28;20030;-71
2024/02/25 02:37:21;;;;;;;1.48;0.80;;;;;;;4.90;95.64;99789.41;5007070;28;20041;-71
2024/02/25 02:39:46;;;;;;;1.85;0.75;;;;;;;4.80;96.77;99786.91;5005582;28;20549;-72
2024/02/25 02:42:12;;;;;;;3.33;1.10;;;;;;;4.81;96.74;99777.44;5006816;28;20042;-71
2024/02/25 02:44:37;;;;;;;6.53;1.13;;;;;;;4.81;96.69;99783.38;5009590;28;20034;-71
2024/02/25 02:47:03;;;;;;;4.18;0.90;;;;;;;4.87;96.53;99780.22;5005295;28;20033;-71
2024/02/25 02:49:29;;;;;;;4.43;0.77;;;;;;;4.88;96.45;99788.75;4989985;28;20022;-71
2024/02/25 02:51:58;;;;;;;6.20;1.42;;;;;;;4.96;96.11;99785.47;5002488;28;20396;-71
2024/02/25 02:54:27;;;;;;;4.85;0.88;;;;;;;4.80;96.69;99779.19;5020476;28;20033;-71
2024/02/25 02:56:52;;;;;;;4.30;0.85;;;;;;;4.81;96.70;99780.00;5006066;28;20038;-71
2024/02/25 02:59:18;;;;;;;6.18;0.90;;;;;;;4.76;97.39;99779.63;5011222;28;20033;-71
2024/02/25 03:01:47;;;;;;;2.80;0.80;;;;;;;4.71;97.79;99792.06;5004863;28;20500;-71
2024/02/25 03:04:13;;;;;;;4.82;0.63;;;;;;;4.70;98.71;99786.13;5008684;28;20030;-71
2024/02/25 03:06:38;;;;;;;3.70;0.80;;;;;;;4.79;97.85;99779.34;5008632;28;20096;-71
2024/02/25 03:09:04;;;;;;;4.55;0.60;;;;;;;4.77;97.66;99776.09;4988472;28;20030;-71
2024/02/25 03:11:29;;;;;;;4.95;0.70;;;;;;;4.78;97.42;99782.84;5003628;28;20038;-71
2024/02/25 03:13:54;;;;;;;4.78;0.95;;;;;;;4.87;97.25;99775.09;4988587;28;20041;-71
2024/02/25 03:16:20;;;;;;;0.98;0.70;;;;;;;4.80;97.61;99771.50;5004547;28;20034;-71
2024/02/25 03:18:45;;;;;;;2.88;0.73;;;;;;;4.78;97.87;99773.38;4989116;28;20041;-71
2024/02/25 03:21:11;;;;;;;7.20;0.60;;;;;;;4.86;96.51;99772.69;5010761;28;20092;-71
2024/02/25 03:23:37;;;;;;;2.85;0.57;;;;;;;4.88;97.33;99779.28;4984443;28;21226;-71
2024/02/25 03:26:02;;;;;;;1.58;0.60;;;;;;;4.78;97.92;99778.50;5007187;28;20295;-71
2024/02/25 03:28:28;;;;;;;6.85;1.38;;;;;;;4.78;98.00;99775.94;5010971;28;20030;-71
2024/02/25 03:30:53;;;;;;;3.17;0.75;;;;;;;4.81;100.00;99777.44;5012721;28;20034;-71
2024/02/25 03:33:19;;;;;;;2.25;0.52;;;;;;;4.78;100.00;99782.84;5009232;28;20025;-72
2024/02/25 03:35:44;;;;;;;4.85;0.60;;;;;;;4.71;100.00;99776.66;4994343;28;20034;-71
2024/02/25 03:38:10;;;;;;;1.20;0.57;;;;;;;4.70;100.00;99785.34;5012834;28;20240;-72
2024/02/25 03:40:35;;;;;;;3.25;0.50;;;;;;;4.73;100.00;99780.72;5008296;28;20068;-72
2024/02/25 03:43:01;;;;;;;1.42;0.40;;;;;;;4.71;100.00;99790.34;5009961;28;20021;-72
2024/02/25 03:45:26;;;;;;;1.83;0.77;;;;;;;4.73;100.00;99777.31;5007269;28;21407;-71
2024/02/25 03:47:52;;;;;;;3.67;0.60;;;;;;;4.76;100.00;99784.75;5026250;28;20045;-72
2024/02/25 03:50:17;;;;;;;2.08;0.50;;;;;;;4.77;100.00;99781.25;5009743;28;20183;-71
2024/02/25 03:52:43;;;;;;;3.85;0.80;;;;;;;4.82;100.00;99781.59;4992203;28;20042;-71
2024/02/25 03:55:08;;;;;;;1.65;0.70;;;;;;;4.87;100.00;99780.22;5010064;28;20041;-72
2024/02/25 03:57:34;;;;;;;1.13;0.50;;;;;;;4.81;100.00;99777.44;4993772;28;20065;-71
2024/02/25 03:59:59;;;;;;;1.73;0.80;;;;;;;4.80;100.00;99776.63;5013415;28;20080;-71
2024/02/25 04:02:25;;;;;;;4.32;0.73;;;;;;;4.75;100.00;99776.25;4990922;28;20053;-71
2024/02/25 04:04:51;;;;;;;1.25;0.50;;;;;;;4.72;100.00;99786.78;5010430;28;20034;-71
2024/02/25 04:07:16;;;;;;;1.70;0.40;;;;;;;4.87;100.00;99784.56;5005577;28;20034;-71
2024/02/25 04:09:42;;;;;;;5.40;0.70;;;;;;;4.90;100.00;99780.88;5010958;28;20022;-71
2024/02/25 04:12:08;;;;;;;0.43;0.30;;;;;;;4.95;100.00;99778.69;5011215;28;20050;-71
2024/02/25 04:14:34;;;;;;;1.65;0.32;;;;;;;4.86;100.00;99781.19;4993847;28;20030;-71
2024/02/25 04:17:00;;;;;;;1.55;0.52;;;;;;;4.92;100.00;99787.50;5006196;28;20050;-71
2024/02/25 04:19:25;;;;;;;1.27;0.50;;;;;;;4.85;100.00;99783.91;5014672;28;20076;-71
2024/02/25 04:21:51;;;;;;;0.82;0.50;;;;;;;4.93;100.00;99783.19;5007806;28;20070;-72
2024/02/25 04:24:16;;;;;;;0.80;0.70;;;;;;;5.02;100.00;99790.03;5009646;28;20065;-72
2024/02/25 04:26:47;;;;;;;1.77;0.60;;;;;;;4.95;100.00;99789.78;5008646;28;20544;-71
2024/02/25 04:29:12;;;;;;;1.70;0.40;;;;;;;4.91;100.00;99791.03;5004821;28;20625;-71
2024/02/25 04:31:43;;;;;;;1.58;0.60;;;;;;;4.85;100.00;99787.25;4991149;28;20046;-72
2024/02/25 04:34:09;;;;;;;2.08;0.60;;;;;;;4.81;100.00;99787.72;4994967;28;20164;-72
2024/02/25 04:36:34;;;;;;;1.88;0.45;;;;;;;4.92;100.00;99792.66;5004318;28;20034;-71
2024/02/25 04:39:00;;;;;;;2.08;1.08;;;;;;;4.84;100.00;99785.66;4994679;28;20481;-71
2024/02/25 04:41:26;;;;;;;0.52;0.30;;;;;;;4.79;100.00;99785.28;4990020;28;20493;-71
2024/02/25 04:43:52;;;;;;;4.63;0.60;;;;;;;4.67;100.00;99788.97;5009467;28;20096;-71
2024/02/25 04:46:17;;;;;;;1.52;0.50;;;;;;;4.83;100.00;99789.16;4992718;28;20030;-71
2024/02/25 04:48:43;;;;;;;5.75;0.50;;;;;;;4.85;100.00;99789.03;5009274;28;20041;-71
2024/02/25 04:51:08;;;;;;;1.60;0.40;;;;;;;4.82;100.00;99799.59;4989974;28;20084;-71
2024/02/25 04:53:34;;;;;;;1.20;0.30;;;;;;;4.78;100.00;99796.50;5008544;28;20050;-72
2024/02/25 04:56:02;;;;;;;1.25;0.50;;;;;;;4.96;100.00;99795.75;5009646;28;20129;-71
2024/02/25 04:58:27;;;;;;;2.97;0.40;;;;;;;4.94;100.00;99798.44;4995263;28;20038;-71
2024/02/25 05:00:53;;;;;;;2.05;0.35;;;;;;;4.87;100.00;99793.06;5009517;28;20045;-71
2024/02/25 05:03:18;;;;;;;1.88;0.40;;;;;;;4.83;100.00;99790.94;5006912;28;20025;-71
2024/02/25 05:05:44;;;;;;;0.80;0.50;;;;;;;4.77;100.00;99787.19;5007974;28;20029;-71
2024/02/25 05:08:09;;;;;;;0.80;0.75;;;;;;;4.80;100.00;99783.50;5007479;28;20049;-71
2024/02/25 05:10:35;;;;;;;0.93;0.40;;;;;;;4.72;100.00;99786.00;4994096;28;20030;-71
2024/02/25 05:13:00;;;;;;;0.70;0.40;;;;;;;4.77;100.00;99794.09;5011596;28;20697;-71
2024/02/25 05:15:27;;;;;;;1.42;0.77;;;;;;;4.71;100.00;99795.47;4990441;28;20080;-71
2024/02/25 05:17:53;;;;;;;0.50;0.50;;;;;;;4.70;100.00;99787.91;5011754;28;20034;-71
2024/02/25 05:20:18;;;;;;;0.77;0.50;;;;;;;4.69;100.00;99789.66;5007872;28;20092;-71
2024/02/25 05:22:44;;;;;;;0.75;0.50;;;;;;;4.84;100.00;99783.09;5008349;28;20038;-71
2024/02/25 05:25:12;;;;;;;0.65;0.40;;;;;;;4.79;100.00;99779.34;5011128;28;20140;-71
2024/02/25 05:27:39;;;;;;;0.68;0.40;;;;;;;4.83;100.00;99788.38;5006662;28;20504;-71
2024/02/25 05:30:04;;;;;;;0.68;0.45;;;;;;;4.88;100.00;99794.69;5008368;28;20407;-71
2024/02/25 05:32:30;;;;;;;2.45;0.40;;;;;;;4.79;100.00;99787.84;5007835;28;20029;-72
2024/02/25 05:34:55;;;;;;;1.17;0.80;;;;;;;4.74;100.00;99797.72;5008779;28;20092;-71
2024/02/25 05:37:22;;;;;;;0.68;0.32;;;;;;;4.80;100.00;99797.19;5005275;28;20570;-71
2024/02/25 05:39:48;;;;;;;0.50;0.40;;;;;;;4.83;100.00;99796.06;4991699;28;20081;-71
2024/02/25 05:42:14;;;;;;;3.80;0.57;;;;;;;4.79;100.00;99790.41;4989414;28;20034;-71
2024/02/25 05:44:40;;;;;;;2.42;0.50;;;;;;;4.73;100.00;99803.84;5011707;28;20373;-71
2024/02/25 05:47:05;;;;;;;2.88;0.88;;;;;;;4.74;100.00;99797.72;4988393;28;20527;-72
2024/02/25 05:49:31;;;;;;;2.90;0.50;;;;;;;4.73;100.00;99803.84;4975315;28;20455;-71
2024/02/25 05:51:56;;;;;;;0.80;0.68;;;;;;;4.87;100.00;99800.78;5006537;28;20042;-71
2024/02/25 05:54:22;;;;;;;0.77;0.38;;;;;;;4.75;100.00;99801.94;4990483;28;20072;-71
2024/02/25 05:56:47;;;;;;;1.17;0.47;;;;;;;4.78;100.00;99809.34;5006863;28;20034;-71
2024/02/25 05:59:13;;;;;;;0.80;0.52;;;;;;;4.70;100.00;99806.69;5004974;28;20040;-71
2024/02/25 06:01:38;;;;;;;6.07;0.80;;;;;;;4.75;100.00;99812.22;4990455;28;20034;-72
2024/02/25 06:04:04;;;;;;;0.90;0.60;;;;;;;4.80;100.00;99807.47;5003694;28;20443;-72
2024/02/25 06:06:30;;;;;;;4.22;0.90;;;;;;;4.82;100.00;99810.69;5020474;28;20037;-71
2024/02/25 06:08:55;;;;;;;2.78;0.82;;;;;;;4.73;100.00;99816.69;5007633;28;20436;-71
2024/02/25 06:11:21;;;;;;;1.45;0.75;;;;;;;4.73;100.00;99820.97;5008209;28;20030;-71
2024/02/25 06:13:46;;;;;;;1.75;0.63;;;;;;;4.71;100.00;99823.72;5011933;28;20041;-71
2024/02/25 06:16:11;;;;;;;2.28;0.70;;;;;;;4.65;100.00;99819.97;5007682;28;20041;-71
2024/02/25 06:18:40;;;;;;;1.73;0.77;;;;;;;4.68;100.00;99829.13;5004846;28;20038;-71
2024/02/25 06:21:05;;;;;;;0.98;0.60;;;;;;;4.70;100.00;99832.34;5008521;28;20041;-72
2024/02/25 06:23:31;;;;;;;0.80;0.40;;;;;;;4.70;100.00;99827.22;4987219;28;20088;-71
2024/02/25 06:25:57;;;;;;;0.90;0.75;;;;;;;4.60;100.00;99836.75;5005770;28;20045;-71
2024/02/25 06:28:23;;;;;;;1.17;0.43;;;;;;;4.65;100.00;99834.53;5006385;28;20049;-71
2024/02/25 06:30:49;;;;;;;0.65;0.55;;;;;;;4.61;100.00;99844.28;4990581;28;20038;-71
2024/02/25 06:33:15;;;;;;;1.33;0.50;;;;;;;4.60;100.00;99841.88;5005286;28;20088;-71
2024/02/25 06:35:40;;;;;;;2.85;0.50;;;;;;;4.63;100.00;99839.00;4990318;28;20157;-71
2024/02/25 06:38:06;;;;;;;1.02;0.60;;;;;;;4.64;100.00;99841.44;5008733;28;20034;-71
2024/02/25 06:40:32;;;;;;;3.08;0.70;;;;;;;4.64;100.00;99838.06;5003157;28;20432;-71
2024/02/25 06:42:58;;;;;;;0.90;0.63;;;;;;;4.61;100.00;99838.34;5006013;28;20026;-71
2024/02/25 06:45:23;;;;;;;2.72;0.68;;;;;;;4.55;100.00;99844.84;5009975;28;20057;-71
2024/02/25 06:47:49;;;;;;;1.73;0.60;;;;;;;4.55;100.00;99837.13;5008066;28;20080;-72
2024/02/25 06:50:14;;;;;;;8.52;2.75;;;;;;;4.56;100.00;99835.38;5003952;28;20476;-71
2024/02/25 06:52:40;;;;;;;9.00;4.55;;;;;;;4.54;100.00;99839.84;5008656;28;20399;-71
2024/02/25 06:55:08;;;;;;;2.08;0.93;;;;;;;4.46;100.00;99837.97;5008721;28;20408;-71
2024/02/25 06:57:34;;;;;;;1.45;0.70;;;;;;;4.47;100.00;99848.09;4989296;28;20045;-71
2024/02/25 07:00:00;;;;;;;7.55;3.63;;;;;;;4.47;100.00;99853.25;5009071;28;20037;-71
2024/02/25 07:02:26;;;;;;;4.45;1.73;;;;;;;4.52;100.00;99854.59;5007976;28;20044;-71
2024/02/25 07:04:51;;;;;;;19.80;7.82;;;;;;;4.55;100.00;99857.69;5011938;28;20037;-71
2024/02/25 07:07:17;;;;;;;16.58;7.20;;;;;;;4.55;100.00;99855.13;4990370;28;20034;-71
2024/02/25 07:09:42;;;;;;;3.33;1.77;;;;;;;4.58;100.00;99864.31;5006771;28;20113;-71
2024/02/25 07:12:08;;;;;;;3.45;0.82;;;;;;;4.77;100.00;99848.03;5006956;28;20037;-71
2024/02/25 07:14:33;;;;;;;2.30;0.60;;;;;;;4.77;100.00;99853.16;4990299;28;20515;-71
2024/02/25 07:16:59;;;;;;;1.77;0.60;;;;;;;4.71;100.00;99851.13;5020199;28;20519;-71
2024/02/25 07:19:24;;;;;;;4.65;0.77;;;;;;;4.70;100.00;99859.81;5009936;28;20092;-71
2024/02/25 07:21:50;;;;;;;5.45;1.17;;;;;;;4.81;100.00;99851.94;5007158;28;20059;-71
2024/02/25 07:24:16;;;;;;;3.58;1.73;;;;;;;4.81;100.00;99857.06;4999664;28;20041;-71
2024/02/25 07:26:42;;;;;;;4.25;1.90;;;;;;;4.85;100.00;99855.81;5021395;28;20040;-71
2024/02/25 07:29:07;;;;;;;5.13;1.50;;;;;;;4.88;100.00;99860.69;5009050;28;20026;-71
2024/02/25 07:31:33;;;;;;;3.15;0.63;;;;;;;5.00;100.00;99856.97;5009751;28;20046;-71
2024/02/25 07:33:58;;;;;;;3.97;1.00;;;;;;;5.09;100.00;99863.03;5010358;28;20026;-71
2024/02/25 07:36:23;;;;;;;14.45;6.85;;;;;;;5.10;100.00;99858.69;5006486;28;20496;-71
2024/02/25 07:38:49;;;;;;;1.33;0.70;;;;;;;5.12;100.00;99862.72;5006544;28;20038;-71
2024/02/25 07:41:14;;;;;;;5.78;2.22;;;;;;;5.25;100.00;99858.06;5007210;28;20037;-71
2024/02/25 07:43:40;;;;;;;3.83;0.80;;;;;;;5.24;100.00;99860.78;5004546;28;20569;-71
2024/02/25 07:46:06;;;;;;;0.93;0.50;;;;;;;5.19;100.00;99866.34;5009014;28;20121;-71
2024/02/25 07:48:32;;;;;;;1.83;0.70;;;;;;;5.32;100.00;99867.78;5004899;28;20038;-71
2024/02/25 07:50:57;;;;;;;2.90;0.70;;;;;;;5.37;100.00;99870.69;5004147;28;20062;-71
2024/02/25 07:53:23;;;;;;;2.88;1.80;;;;;;;5.29;100.00;99873.19;5008176;28;20034;-71
2024/02/25 07:55:48;;;;;;;3.90;1.27;;;;;;;5.43;100.00;99865.00;5010969;28;20045;-71
2024/02/25 07:58:14;;;;;;;2.47;0.68;;;;;;;5.46;100.00;99873.22;4990604;28;20037;-71
2024/02/25 08:00:40;;;;;;;4.35;1.70;;;;;;;5.43;100.00;99873.50;5003408;28;20057;-71
2024/02/25 08:03:06;;;;;;;2.67;1.73;;;;;;;5.52;100.00;99876.16;4990722;28;20041;-71
2024/02/25 08:05:31;;;;;;;1.08;0.60;;;;;;;5.61;100.00;99876.13;5004605;28;20128;-71
2024/02/25 08:07:57;;;;;;;2.65;0.95;;;;;;;5.56;100.00;99873.16;5010989;28;20062;-71
2024/02/25 08:10:23;;;;;;;1.52;0.73;;;;;;;5.66;100.00;99881.59;5007661;28;20038;-71
2024/02/25 08:12:48;;;;;;;3.72;2.40;;;;;;;5.72;99.03;99881.97;5013112;28;20029;-71
2024/02/25 08:15:14;;;;;;;2.33;1.40;;;;;;;5.69;98.29;99877.13;5009462;28;20117;-71
2024/02/25 08:17:40;;;;;;;1.52;1.00;;;;;;;5.76;98.61;99873.00;5010350;28;20030;-71
2024/02/25 08:20:07;;;;;;;1.70;1.00;;;;;;;5.63;97.84;99884.50;5010384;28;20056;-71
2024/02/25 08:22:32;;;;;;;2.45;1.20;;;;;;;5.73;97.32;99887.00;4994841;28;20061;-71
2024/02/25 08:25:02;;;;;;;2.38;2.08;;;;;;;5.74;97.29;99885.22;5009113;28;20111;-71
2024/02/25 08:27:32;;;;;;;2.75;1.17;;;;;;;5.69;97.42;99883.09;5005542;28;20045;-71
2024/02/25 08:30:01;;;;;;;3.05;2.20;;;;;;;5.84;97.14;99884.19;4993225;28;20045;-71
2024/02/25 08:32:27;;;;;;;1.45;1.20;;;;;;;5.92;97.05;99885.22;5010301;28;20488;-71
2024/02/25 08:34:55;;;;;;;2.35;0.88;;;;;;;5.98;95.03;99880.31;5009354;28;20045;-71
2024/02/25 08:37:22;;;;;;;2.00;1.60;;;;;;;6.06;95.29;99882.13;4990417;28;20078;-71
2024/02/25 08:39:49;;;;;;;3.78;2.05;;;;;;;5.96;95.75;99882.22;5006868;28;20050;-71
2024/02/25 08:42:15;;;;;;;2.60;0.90;;;;;;;6.06;95.13;99881.34;5008348;28;20106;-71
2024/02/25 08:44:40;;;;;;;5.75;1.60;;;;;;;6.11;94.75;99874.78;5020873;28;20105;-71
2024/02/25 08:47:05;;;;;;;3.78;1.85;;;;;;;6.21;95.29;99882.41;5010610;28;20045;-71
2024/02/25 08:49:31;;;;;;;0.95;0.75;;;;;;;6.27;93.86;99889.53;5011187;28;20037;-71
2024/02/25 08:51:56;;;;;;;1.55;0.85;;;;;;;6.30;94.12;99883.28;5010282;28;20038;-71
2024/02/25 08:54:22;;;;;;;5.72;1.50;;;;;;;6.37;92.33;99884.31;5010521;28;20033;-71
2024/02/25 08:56:47;;;;;;;1.45;0.80;;;;;;;6.47;93.38;99877.28;5007342;28;20496;-71
2024/02/25 08:59:13;;;;;;;3.50;0.90;;;;;;;6.59;91.19;99888.97;4992734;28;20049;-72
2024/02/25 09:01:38;;;;;;;1.35;0.60;;;;;;;6.82;90.42;99886.66;5010595;28;20033;-71
2024/02/25 09:04:04;;;;;;;2.55;1.00;;;;;;;7.05;89.61;99877.59;5008808;28;20038;-71
2024/02/25 09:06:29;;;;;;;1.45;0.70;;;;;;;7.14;89.17;99884.38;5008267;28;20049;-72
2024/02/25 09:08:57;;;;;;;2.05;0.60;;;;;;;7.12;86.38;99883.72;4991867;28;20035;-71
2024/02/25 09:11:23;;;;;;;0.82;0.40;;;;;;;6.97;86.07;99881.75;5006203;28;20108;-71
2024/02/25 09:13:51;;;;;;;2.25;0.50;;;;;;;6.98;87.20;99880.75;5007299;28;20034;-71
2024/02/25 09:16:16;;;;;;;2.78;0.52;;;;;;;7.15;87.70;99884.22;5005877;28;20029;-71
2024/02/25 09:18:42;;;;;;;1.98;0.70;;;;;;;7.13;86.97;99881.00;5009075;28;20073;-72
2024/02/25 09:21:07;;;;;;;2.88;1.33;;;;;;;7.09;86.49;99879.69;5011801;28;20033;-72
2024/02/25 09:23:33;;;;;;;0.80;0.50;;;;;;;7.16;85.54;99878.09;4990499;28;20084;-71
2024/02/25 09:25:58;;;;;;;1.83;0.65;;;;;;;7.29;85.73;99882.84;5006230;28;20045;-71
2024/02/25 09:28:24;;;;;;;1.92;0.50;;;;;;;7.31;85.35;99880.06;5011723;28;20041;-71
2024/02/25 09:30:50;;;;;;;0.50;0.40;;;;;;;7.41;83.96;99878.97;4991379;28;20037;-72
2024/02/25 09:33:16;;;;;;;1.80;0.50;;;;;;;7.50;84.50;99877.22;5008700;28;20034;-71
2024/02/25 09:35:42;;;;;;;3.75;0.55;;;;;;;7.47;85.47;99874.97;5007810;28;20047;-72
2024/02/25 09:38:07;;;;;;;2.17;0.70;;;;;;;7.36;84.14;99873.47;5008354;28;20034;-71
2024/02/25 09:40:33;;;;;;;7.95;1.73;;;;;;;7.36;85.41;99888.16;4991871;28;20038;-71
2024/02/25 09:42:59;;;;;;;22.52;9.43;;;;;;;7.39;84.59;99886.06;5019101;28;20284;-72
2024/02/25 09:45:25;;;;;;;3.20;1.27;;;;;;;7.41;83.95;99868.66;5012555;28;20467;-71
2024/02/25 09:47:51;;;;;;;2.10;0.60;;;;;;;7.41;83.13;99870.44;4991224;28;20389;-71
2024/02/25 09:50:18;;;;;;;2.67;0.90;;;;;;;7.54;82.68;99872.56;5004507;28;20037;-71
2024/02/25 09:52:48;;;;;;;3.45;0.98;;;;;;;7.47;83.72;99877.53;5008349;28;20849;-72
2024/02/25 09:55:14;;;;;;;2.58;0.88;;;;;;;7.84;82.65;99872.94;4996492;28;20087;-72
2024/02/25 09:57:40;;;;;;;3.50;0.75;;;;;;;8.09;79.86;99871.94;5008497;28;20502;-71
2024/02/25 10:00:06;;;;;;;5.72;0.90;;;;;;;8.35;78.96;99866.59;5005407;28;20428;-72
2024/02/25 10:02:32;;;;;;;1.02;0.50;;;;;;;8.42;77.64;99863.38;4988881;28;20093;-72
2024/02/25 10:05:03;;;;;;;2.60;0.73;;;;;;;8.43;78.07;99865.81;4975704;28;20519;-72
2024/02/25 10:07:31;;;;;;;7.03;0.95;;;;;;;8.56;78.34;99863.50;5012306;28;21774;-71
2024/02/25 10:09:57;;;;;;;1.40;0.68;;;;;;;8.63;78.18;99868.03;5009615;28;20033;-71
2024/02/25 10:12:23;;;;;;;2.08;0.60;;;;;;;8.47;77.29;99863.69;5011670;28;20029;-72
2024/02/25 10:14:55;;;;;;;3.88;0.68;;;;;;;8.47;76.10;99864.50;4994502;28;20045;-72
2024/02/25 10:17:24;;;;;;;2.00;0.70;;;;;;;8.22;76.22;99861.13;4992496;28;20504;-72
2024/02/25 10:19:56;;;;;;;4.05;0.60;;;;;;;8.43;77.04;99870.19;5009607;28;20044;-72
2024/02/25 10:22:24;;;;;;;5.78;1.42;;;;;;;8.43;75.93;99862.41;5010401;28;20033;-72
2024/02/25 10:24:50;;;;;;;3.90;0.63;;;;;;;8.40;76.39;99860.97;4990627;28;20044;-72
2024/02/25 10:27:18;;;;;;;5.75;1.05;;;;;;;8.40;76.75;99855.78;5008003;28;20087;-71
2024/02/25 10:29:57;;;;;;;1.67;0.75;;;;;;;8.48;76.53;99855.00;5010076;28;20069;-72
2024/02/25 10:32:30;;;;;;;5.45;0.50;;;;;;;8.67;77.03;99864.16;5007296;28;20498;-72
2024/02/25 10:35:00;;;;;;;4.22;0.70;;;;;;;8.56;75.16;99857.53;4997840;28;20068;-72
2024/02/25 10:37:27;;;;;;;4.75;0.88;;;;;;;8.61;75.06;99854.44;4983967;28;20116;-72
2024/02/25 10:39:55;;;;;;;2.33;0.50;;;;;;;8.74;74.97;99859.94;4992926;28;20497;-72
2024/02/25 10:42:26;;;;;;;6.07;0.80;;;;;;;8.77;74.50;99850.03;5008777;28;20038;-71
2024/02/25 10:44:53;;;;;;;2.70;0.70;;;;;;;9.02;75.25;99847.34;5004530;28;20042;-72
2024/02/25 10:47:26;;;;;;;3.53;0.50;;;;;;;9.11;71.03;99851.50;5007442;28;20068;-72
2024/02/25 10:49:55;;;;;;;3.38;0.57;;;;;;;8.98;72.06;99847.88;5007544;28;20022;-72
2024/02/25 10:52:28;;;;;;;4.00;0.60;;;;;;;8.87;71.11;99842.09;5010943;28;20556;-72
2024/02/25 10:54:57;;;;;;;;;;;;;;;8.95;69.69;99847.22;5003316;28;20034;-72
2024/02/25 10:57:23;;;;;;;1.70;0.50;;;;;;;9.04;72.17;99840.25;5005168;28;19917;-72
2024/02/25 10:59:49;;;;;;;1.42;0.43;;;;;;;9.01;70.54;99839.78;5009688;28;20056;-72
2024/02/25 11:02:17;;;;;;;2.00;0.50;;;;;;;8.96;69.94;99835.91;5007199;28;20542;-72
2024/02/25 11:04:46;;;;;;;3.67;0.55;;;;;;;9.03;68.06;99838.63;4990030;28;20101;-72
2024/02/25 11:07:13;;;;;;;2.13;0.60;;;;;;;9.05;70.27;99838.47;5004831;28;20042;-72
2024/02/25 11:09:39;;;;;;;2.22;0.45;;;;;;;9.18;71.76;99837.91;5006974;28;20046;-72
2024/02/25 11:12:26;;;;;;;2.28;0.60;;;;;;;9.35;70.18;99835.06;5005114;28;20100;-72
2024/02/25 11:15:02;;;;;;;5.95;0.77;;;;;;;9.42;68.89;99829.19;5004913;28;20041;-72
2024/02/25 11:17:30;;;;;;;2.13;0.65;;;;;;;9.57;68.47;99837.00;4988561;28;20034;-72
2024/02/25 11:20:11;;;;;;;1.25;0.63;;;;;;;9.36;69.14;99830.69;4993821;28;20030;-72
2024/02/25 11:22:49;;;;;;;6.72;1.00;;;;;;;9.09;70.36;99830.19;5006909;28;20042;-72
2024/02/25 11:25:26;;;;;;;2.53;0.57;;;;;;;9.24;70.18;99832.06;5005079;28;20776;-72
2024/02/25 11:28:12;;;;;;;3.90;0.57;;;;;;;9.31;69.95;99825.22;5019484;28;20050;-72
2024/02/25 11:30:48;;;;;;;3.67;0.50;;;;;;;9.50;69.10;99823.97;4986290;28;20050;-72
2024/02/25 11:33:41;;;;;;;1.63;0.50;;;;;;;9.67;68.31;99819.50;5008068;28;20129;-72